sensor_id;sensor_type;location;lat;lon;timestamp;P1;durP1;ratioP1;P2;durP2;ratioP2
60714;SDS011;46564;53.096;8.246;2022-10-16T00:00:41;7.07;;;2.28;;
60714;SDS011;46564;53.096;8.246;2022-10-16T00:05:44;3.55;;;1.75;;
60714;SDS011;46564;53.096;8.246;2022-10-16T00:10:45;5.80;;;1.92;;
60714;SDS011;46564;53.096;8.246;2022-10-16T00:15:47;4.65;;;1.75;;
60714;SDS011;46564;53.096;8.246;2022-10-16T00:20:49;5.85;;;1.65;;
60714;SDS011;46564;53.096;8.246;2022-10-16T00:25:57;9.93;;;1.77;;
60714;SDS011;46564;53.096;8.246;2022-10-16T00:31:03;4.38;;;1.48;;
60714;SDS011;46564;53.096;8.246;2022-10-16T00:36:10;4.53;;;1.92;;
60714;SDS011;46564;53.096;8.246;2022-10-16T00:41:15;5.25;;;1.83;;
60714;SDS011;46564;53.096;8.246;2022-10-16T00:46:35;7.95;;;1.98;;
60714;SDS011;46564;53.096;8.246;2022-10-16T00:51:42;6.30;;;1.80;;
60714;SDS011;46564;53.096;8.246;2022-10-16T00:56:46;4.32;;;2.70;;
60714;SDS011;46564;53.096;8.246;2022-10-16T01:01:48;4.90;;;1.95;;
60714;SDS011;46564;53.096;8.246;2022-10-16T01:12:19;10.35;;;2.33;;
60714;SDS011;46564;53.096;8.246;2022-10-16T01:17:44;9.63;;;2.13;;
60714;SDS011;46564;53.096;8.246;2022-10-16T01:23:03;5.93;;;1.60;;
60714;SDS011;46564;53.096;8.246;2022-10-16T01:28:11;12.05;;;2.17;;
60714;SDS011;46564;53.096;8.246;2022-10-16T01:33:19;9.75;;;1.60;;
60714;SDS011;46564;53.096;8.246;2022-10-16T01:43:33;4.63;;;1.95;;
60714;SDS011;46564;53.096;8.246;2022-10-16T01:48:38;2.75;;;1.40;;
60714;SDS011;46564;53.096;8.246;2022-10-16T01:53:41;4.30;;;1.67;;
60714;SDS011;46564;53.096;8.246;2022-10-16T01:59:33;7.07;;;1.70;;
60714;SDS011;46564;53.096;8.246;2022-10-16T02:04:15;7.20;;;2.15;;
60714;SDS011;46564;53.096;8.246;2022-10-16T02:09:18;5.45;;;1.67;;
60714;SDS011;46564;53.096;8.246;2022-10-16T02:14:19;3.88;;;1.50;;
60714;SDS011;46564;53.096;8.246;2022-10-16T02:19:23;3.60;;;1.40;;
60714;SDS011;46564;53.096;8.246;2022-10-16T02:30:05;5.72;;;1.77;;
60714;SDS011;46564;53.096;8.246;2022-10-16T02:35:14;7.90;;;1.70;;
60714;SDS011;46564;53.096;8.246;2022-10-16T02:40:19;4.28;;;1.40;;
60714;SDS011;46564;53.096;8.246;2022-10-16T02:45:25;5.80;;;1.60;;
60714;SDS011;46564;53.096;8.246;2022-10-16T02:50:27;5.88;;;1.50;;
60714;SDS011;46564;53.096;8.246;2022-10-16T02:55:28;4.80;;;1.40;;
60714;SDS011;46564;53.096;8.246;2022-10-16T03:00:30;4.30;;;1.33;;
60714;SDS011;46564;53.096;8.246;2022-10-16T03:05:32;2.22;;;1.13;;
60714;SDS011;46564;53.096;8.246;2022-10-16T03:10:34;6.22;;;1.52;;
60714;SDS011;46564;53.096;8.246;2022-10-16T03:15:36;6.72;;;1.30;;
60714;SDS011;46564;53.096;8.246;2022-10-16T03:20:37;4.80;;;1.60;;
60714;SDS011;46564;53.096;8.246;2022-10-16T03:25:39;5.55;;;1.85;;
60714;SDS011;46564;53.096;8.246;2022-10-16T03:30:42;6.00;;;1.70;;
60714;SDS011;46564;53.096;8.246;2022-10-16T03:35:50;3.80;;;1.88;;
60714;SDS011;46564;53.096;8.246;2022-10-16T03:40:54;4.70;;;1.63;;
60714;SDS011;46564;53.096;8.246;2022-10-16T03:45:56;6.07;;;2.30;;
60714;SDS011;46564;53.096;8.246;2022-10-16T03:50:58;6.10;;;2.17;;
60714;SDS011;46564;53.096;8.246;2022-10-16T03:55:59;7.63;;;2.50;;
60714;SDS011;46564;53.096;8.246;2022-10-16T04:01:01;8.25;;;3.03;;
60714;SDS011;46564;53.096;8.246;2022-10-16T04:06:03;10.63;;;3.10;;
60714;SDS011;46564;53.096;8.246;2022-10-16T04:11:05;7.63;;;3.28;;
60714;SDS011;46564;53.096;8.246;2022-10-16T04:16:07;12.73;;;3.45;;
60714;SDS011;46564;53.096;8.246;2022-10-16T04:21:08;7.60;;;3.58;;
60714;SDS011;46564;53.096;8.246;2022-10-16T04:26:10;9.38;;;3.92;;
60714;SDS011;46564;53.096;8.246;2022-10-16T04:31:12;12.15;;;4.38;;
60714;SDS011;46564;53.096;8.246;2022-10-16T04:36:13;10.50;;;4.40;;
60714;SDS011;46564;53.096;8.246;2022-10-16T04:41:15;8.75;;;4.07;;
60714;SDS011;46564;53.096;8.246;2022-10-16T04:46:17;8.93;;;4.50;;
60714;SDS011;46564;53.096;8.246;2022-10-16T04:51:18;11.38;;;4.22;;
60714;SDS011;46564;53.096;8.246;2022-10-16T04:56:20;9.80;;;4.57;;
60714;SDS011;46564;53.096;8.246;2022-10-16T05:01:23;8.45;;;4.43;;
60714;SDS011;46564;53.096;8.246;2022-10-16T05:06:25;8.90;;;3.92;;
60714;SDS011;46564;53.096;8.246;2022-10-16T05:11:26;17.30;;;5.32;;
60714;SDS011;46564;53.096;8.246;2022-10-16T05:16:29;10.30;;;4.75;;
60714;SDS011;46564;53.096;8.246;2022-10-16T05:21:32;16.85;;;5.18;;
60714;SDS011;46564;53.096;8.246;2022-10-16T05:26:33;12.80;;;5.40;;
60714;SDS011;46564;53.096;8.246;2022-10-16T05:31:35;11.23;;;5.55;;
60714;SDS011;46564;53.096;8.246;2022-10-16T05:36:37;11.88;;;5.45;;
60714;SDS011;46564;53.096;8.246;2022-10-16T05:41:40;11.77;;;5.05;;
60714;SDS011;46564;53.096;8.246;2022-10-16T05:46:42;12.85;;;5.55;;
60714;SDS011;46564;53.096;8.246;2022-10-16T05:51:44;11.00;;;5.38;;
60714;SDS011;46564;53.096;8.246;2022-10-16T05:56:46;13.80;;;5.80;;
60714;SDS011;46564;53.096;8.246;2022-10-16T06:01:48;12.88;;;5.38;;
60714;SDS011;46564;53.096;8.246;2022-10-16T06:06:49;11.25;;;5.43;;
60714;SDS011;46564;53.096;8.246;2022-10-16T06:11:51;12.02;;;5.70;;
60714;SDS011;46564;53.096;8.246;2022-10-16T06:16:53;11.07;;;4.70;;
60714;SDS011;46564;53.096;8.246;2022-10-16T06:21:54;9.77;;;5.05;;
60714;SDS011;46564;53.096;8.246;2022-10-16T06:26:56;15.65;;;5.40;;
60714;SDS011;46564;53.096;8.246;2022-10-16T06:31:57;9.75;;;4.93;;
60714;SDS011;46564;53.096;8.246;2022-10-16T06:36:59;11.65;;;4.82;;
60714;SDS011;46564;53.096;8.246;2022-10-16T06:42:01;14.32;;;5.28;;
60714;SDS011;46564;53.096;8.246;2022-10-16T06:47:09;10.27;;;4.90;;
60714;SDS011;46564;53.096;8.246;2022-10-16T06:52:11;11.00;;;5.00;;
60714;SDS011;46564;53.096;8.246;2022-10-16T06:57:13;10.27;;;4.63;;
60714;SDS011;46564;53.096;8.246;2022-10-16T07:02:14;11.93;;;4.63;;
60714;SDS011;46564;53.096;8.246;2022-10-16T07:07:16;10.43;;;4.50;;
60714;SDS011;46564;53.096;8.246;2022-10-16T07:12:17;8.75;;;4.32;;
60714;SDS011;46564;53.096;8.246;2022-10-16T07:17:19;9.18;;;3.97;;
60714;SDS011;46564;53.096;8.246;2022-10-16T07:22:21;10.82;;;3.47;;
60714;SDS011;46564;53.096;8.246;2022-10-16T07:27:23;9.63;;;3.70;;
60714;SDS011;46564;53.096;8.246;2022-10-16T07:32:25;8.60;;;3.58;;
60714;SDS011;46564;53.096;8.246;2022-10-16T07:37:28;8.48;;;3.55;;
60714;SDS011;46564;53.096;8.246;2022-10-16T07:42:30;10.30;;;3.40;;
60714;SDS011;46564;53.096;8.246;2022-10-16T07:47:32;5.55;;;2.42;;
60714;SDS011;46564;53.096;8.246;2022-10-16T07:52:33;7.78;;;3.13;;
60714;SDS011;46564;53.096;8.246;2022-10-16T07:57:35;6.82;;;2.83;;
60714;SDS011;46564;53.096;8.246;2022-10-16T08:02:36;5.15;;;2.30;;
60714;SDS011;46564;53.096;8.246;2022-10-16T08:07:38;5.38;;;2.20;;
60714;SDS011;46564;53.096;8.246;2022-10-16T08:12:40;6.57;;;2.10;;
60714;SDS011;46564;53.096;8.246;2022-10-16T08:17:42;4.20;;;1.70;;
60714;SDS011;46564;53.096;8.246;2022-10-16T08:22:44;3.47;;;1.90;;
60714;SDS011;46564;53.096;8.246;2022-10-16T08:27:45;3.88;;;1.83;;
60714;SDS011;46564;53.096;8.246;2022-10-16T08:32:47;6.78;;;1.70;;
60714;SDS011;46564;53.096;8.246;2022-10-16T08:37:49;3.60;;;1.52;;
60714;SDS011;46564;53.096;8.246;2022-10-16T08:43:01;3.83;;;1.67;;
60714;SDS011;46564;53.096;8.246;2022-10-16T08:48:38;3.63;;;1.40;;
60714;SDS011;46564;53.096;8.246;2022-10-16T08:58:59;4.35;;;1.60;;
60714;SDS011;46564;53.096;8.246;2022-10-16T09:19:56;3.72;;;1.23;;
60714;SDS011;46564;53.096;8.246;2022-10-16T09:25:15;5.40;;;1.42;;
60714;SDS011;46564;53.096;8.246;2022-10-16T09:30:20;4.13;;;1.40;;
60714;SDS011;46564;53.096;8.246;2022-10-16T09:35:24;4.22;;;1.40;;
60714;SDS011;46564;53.096;8.246;2022-10-16T09:40:37;4.00;;;1.10;;
60714;SDS011;46564;53.096;8.246;2022-10-16T09:50:54;2.35;;;1.00;;
60714;SDS011;46564;53.096;8.246;2022-10-16T09:55:57;5.10;;;1.00;;
60714;SDS011;46564;53.096;8.246;2022-10-16T10:00:58;3.25;;;1.20;;
60714;SDS011;46564;53.096;8.246;2022-10-16T10:06:05;4.68;;;1.25;;
60714;SDS011;46564;53.096;8.246;2022-10-16T10:11:18;4.43;;;0.98;;
60714;SDS011;46564;53.096;8.246;2022-10-16T10:16:25;3.75;;;0.90;;
60714;SDS011;46564;53.096;8.246;2022-10-16T10:21:27;2.47;;;1.00;;
60714;SDS011;46564;53.096;8.246;2022-10-16T10:26:29;1.88;;;0.68;;
60714;SDS011;46564;53.096;8.246;2022-10-16T10:42:55;4.60;;;0.90;;
60714;SDS011;46564;53.096;8.246;2022-10-16T11:04:05;1.48;;;0.63;;
60714;SDS011;46564;53.096;8.246;2022-10-16T11:09:31;3.70;;;0.82;;
60714;SDS011;46564;53.096;8.246;2022-10-16T11:14:42;3.92;;;0.90;;
60714;SDS011;46564;53.096;8.246;2022-10-16T11:25:24;4.20;;;1.27;;
60714;SDS011;46564;53.096;8.246;2022-10-16T11:30:29;3.40;;;0.95;;
60714;SDS011;46564;53.096;8.246;2022-10-16T11:35:36;3.63;;;1.00;;
60714;SDS011;46564;53.096;8.246;2022-10-16T11:40:45;7.57;;;1.45;;
60714;SDS011;46564;53.096;8.246;2022-10-16T11:45:51;2.78;;;0.90;;
60714;SDS011;46564;53.096;8.246;2022-10-16T11:50:56;6.75;;;0.90;;
60714;SDS011;46564;53.096;8.246;2022-10-16T11:56:06;12.75;;;1.05;;
60714;SDS011;46564;53.096;8.246;2022-10-16T12:11:40;9.27;;;1.27;;
60714;SDS011;46564;53.096;8.246;2022-10-16T12:16:52;6.97;;;1.40;;
60714;SDS011;46564;53.096;8.246;2022-10-16T12:22:01;4.63;;;0.75;;
60714;SDS011;46564;53.096;8.246;2022-10-16T12:27:05;6.03;;;1.00;;
60714;SDS011;46564;53.096;8.246;2022-10-16T12:32:33;3.75;;;0.68;;
60714;SDS011;46564;53.096;8.246;2022-10-16T12:42:55;5.65;;;1.13;;
60714;SDS011;46564;53.096;8.246;2022-10-16T12:47:57;5.35;;;1.02;;
60714;SDS011;46564;53.096;8.246;2022-10-16T12:53:00;9.38;;;1.02;;
60714;SDS011;46564;53.096;8.246;2022-10-16T13:03:48;3.15;;;1.00;;
60714;SDS011;46564;53.096;8.246;2022-10-16T13:09:17;5.95;;;0.88;;
60714;SDS011;46564;53.096;8.246;2022-10-16T13:14:29;4.57;;;0.90;;
60714;SDS011;46564;53.096;8.246;2022-10-16T13:30:24;4.65;;;0.90;;
60714;SDS011;46564;53.096;8.246;2022-10-16T13:35:32;8.85;;;1.20;;
60714;SDS011;46564;53.096;8.246;2022-10-16T13:40:36;6.65;;;1.25;;
60714;SDS011;46564;53.096;8.246;2022-10-16T13:45:38;8.18;;;1.25;;
60714;SDS011;46564;53.096;8.246;2022-10-16T13:50:39;5.25;;;1.20;;
60714;SDS011;46564;53.096;8.246;2022-10-16T13:55:41;6.85;;;1.25;;
60714;SDS011;46564;53.096;8.246;2022-10-16T14:00:53;9.00;;;1.17;;
60714;SDS011;46564;53.096;8.246;2022-10-16T14:05:57;5.47;;;1.30;;
60714;SDS011;46564;53.096;8.246;2022-10-16T14:11:02;6.43;;;1.10;;
60714;SDS011;46564;53.096;8.246;2022-10-16T14:16:05;6.40;;;1.20;;
60714;SDS011;46564;53.096;8.246;2022-10-16T14:21:13;9.93;;;1.30;;
60714;SDS011;46564;53.096;8.246;2022-10-16T14:26:18;5.20;;;1.00;;
60714;SDS011;46564;53.096;8.246;2022-10-16T14:36:28;5.13;;;1.10;;
60714;SDS011;46564;53.096;8.246;2022-10-16T14:41:31;4.78;;;1.10;;
60714;SDS011;46564;53.096;8.246;2022-10-16T14:46:41;4.47;;;0.93;;
60714;SDS011;46564;53.096;8.246;2022-10-16T14:51:45;8.20;;;1.20;;
60714;SDS011;46564;53.096;8.246;2022-10-16T14:56:49;4.38;;;0.90;;
60714;SDS011;46564;53.096;8.246;2022-10-16T15:01:52;4.40;;;1.45;;
60714;SDS011;46564;53.096;8.246;2022-10-16T15:06:54;11.38;;;1.60;;
60714;SDS011;46564;53.096;8.246;2022-10-16T15:11:56;9.82;;;1.50;;
60714;SDS011;46564;53.096;8.246;2022-10-16T15:16:57;7.55;;;1.20;;
60714;SDS011;46564;53.096;8.246;2022-10-16T15:21:59;6.35;;;0.77;;
60714;SDS011;46564;53.096;8.246;2022-10-16T15:27:01;3.42;;;0.93;;
60714;SDS011;46564;53.096;8.246;2022-10-16T15:32:03;4.90;;;1.10;;
60714;SDS011;46564;53.096;8.246;2022-10-16T15:37:05;6.90;;;1.40;;
60714;SDS011;46564;53.096;8.246;2022-10-16T15:42:07;7.00;;;1.40;;
60714;SDS011;46564;53.096;8.246;2022-10-16T15:47:09;6.18;;;0.82;;
60714;SDS011;46564;53.096;8.246;2022-10-16T15:52:10;8.15;;;1.35;;
60714;SDS011;46564;53.096;8.246;2022-10-16T15:57:12;6.82;;;1.50;;
60714;SDS011;46564;53.096;8.246;2022-10-16T16:02:14;9.13;;;2.10;;
60714;SDS011;46564;53.096;8.246;2022-10-16T16:07:15;6.50;;;1.40;;
60714;SDS011;46564;53.096;8.246;2022-10-16T16:12:17;8.85;;;2.35;;
60714;SDS011;46564;53.096;8.246;2022-10-16T16:17:18;5.47;;;1.50;;
60714;SDS011;46564;53.096;8.246;2022-10-16T16:22:20;8.88;;;1.80;;
60714;SDS011;46564;53.096;8.246;2022-10-16T16:27:22;4.55;;;1.38;;
60714;SDS011;46564;53.096;8.246;2022-10-16T16:32:26;7.03;;;1.48;;
60714;SDS011;46564;53.096;8.246;2022-10-16T16:37:28;8.52;;;1.80;;
60714;SDS011;46564;53.096;8.246;2022-10-16T16:42:30;9.80;;;1.73;;
60714;SDS011;46564;53.096;8.246;2022-10-16T16:47:32;9.23;;;1.98;;
60714;SDS011;46564;53.096;8.246;2022-10-16T16:52:34;5.70;;;1.95;;
60714;SDS011;46564;53.096;8.246;2022-10-16T16:57:36;9.30;;;2.03;;
60714;SDS011;46564;53.096;8.246;2022-10-16T17:02:38;8.60;;;2.90;;
60714;SDS011;46564;53.096;8.246;2022-10-16T17:07:44;10.32;;;3.10;;
60714;SDS011;46564;53.096;8.246;2022-10-16T17:12:45;7.70;;;3.22;;
60714;SDS011;46564;53.096;8.246;2022-10-16T17:17:47;7.53;;;2.53;;
60714;SDS011;46564;53.096;8.246;2022-10-16T17:22:50;13.05;;;4.03;;
60714;SDS011;46564;53.096;8.246;2022-10-16T17:27:52;13.25;;;4.22;;
60714;SDS011;46564;53.096;8.246;2022-10-16T17:32:54;19.40;;;5.65;;
60714;SDS011;46564;53.096;8.246;2022-10-16T17:37:55;10.23;;;5.03;;
60714;SDS011;46564;53.096;8.246;2022-10-16T17:42:57;14.15;;;5.30;;
60714;SDS011;46564;53.096;8.246;2022-10-16T17:47:58;15.15;;;6.88;;
60714;SDS011;46564;53.096;8.246;2022-10-16T17:53:01;15.60;;;6.45;;
60714;SDS011;46564;53.096;8.246;2022-10-16T17:58:03;16.88;;;5.85;;
60714;SDS011;46564;53.096;8.246;2022-10-16T18:03:05;11.82;;;5.75;;
60714;SDS011;46564;53.096;8.246;2022-10-16T18:08:07;21.42;;;6.68;;
60714;SDS011;46564;53.096;8.246;2022-10-16T18:13:09;17.95;;;7.30;;
60714;SDS011;46564;53.096;8.246;2022-10-16T18:18:11;17.58;;;8.20;;
60714;SDS011;46564;53.096;8.246;2022-10-16T18:23:13;17.92;;;8.57;;
60714;SDS011;46564;53.096;8.246;2022-10-16T18:28:14;16.17;;;7.60;;
60714;SDS011;46564;53.096;8.246;2022-10-16T18:33:16;17.90;;;8.95;;
60714;SDS011;46564;53.096;8.246;2022-10-16T18:38:18;28.05;;;9.35;;
60714;SDS011;46564;53.096;8.246;2022-10-16T18:43:20;20.35;;;8.38;;
60714;SDS011;46564;53.096;8.246;2022-10-16T18:48:22;23.88;;;8.80;;
60714;SDS011;46564;53.096;8.246;2022-10-16T18:53:24;22.27;;;7.68;;
60714;SDS011;46564;53.096;8.246;2022-10-16T18:58:25;21.50;;;6.00;;
60714;SDS011;46564;53.096;8.246;2022-10-16T19:03:27;17.27;;;6.18;;
60714;SDS011;46564;53.096;8.246;2022-10-16T19:08:29;13.18;;;5.47;;
60714;SDS011;46564;53.096;8.246;2022-10-16T19:13:32;15.10;;;5.70;;
60714;SDS011;46564;53.096;8.246;2022-10-16T19:18:34;13.77;;;5.00;;
60714;SDS011;46564;53.096;8.246;2022-10-16T19:23:39;19.00;;;6.68;;
60714;SDS011;46564;53.096;8.246;2022-10-16T19:28:41;24.92;;;8.95;;
60714;SDS011;46564;53.096;8.246;2022-10-16T19:33:44;21.15;;;8.60;;
60714;SDS011;46564;53.096;8.246;2022-10-16T19:38:45;21.73;;;8.32;;
60714;SDS011;46564;53.096;8.246;2022-10-16T19:43:47;21.52;;;8.68;;
60714;SDS011;46564;53.096;8.246;2022-10-16T19:48:57;24.77;;;9.82;;
60714;SDS011;46564;53.096;8.246;2022-10-16T19:54:02;29.27;;;8.15;;
60714;SDS011;46564;53.096;8.246;2022-10-16T19:59:07;23.48;;;8.30;;
60714;SDS011;46564;53.096;8.246;2022-10-16T20:04:12;22.77;;;8.70;;
60714;SDS011;46564;53.096;8.246;2022-10-16T20:09:14;17.52;;;7.45;;
60714;SDS011;46564;53.096;8.246;2022-10-16T20:14:16;26.88;;;9.57;;
60714;SDS011;46564;53.096;8.246;2022-10-16T20:19:18;27.48;;;9.75;;
60714;SDS011;46564;53.096;8.246;2022-10-16T20:24:20;19.80;;;7.75;;
60714;SDS011;46564;53.096;8.246;2022-10-16T20:29:21;21.48;;;8.38;;
60714;SDS011;46564;53.096;8.246;2022-10-16T20:34:23;23.63;;;8.63;;
60714;SDS011;46564;53.096;8.246;2022-10-16T20:39:25;27.52;;;12.93;;
60714;SDS011;46564;53.096;8.246;2022-10-16T20:44:27;20.45;;;7.68;;
60714;SDS011;46564;53.096;8.246;2022-10-16T20:49:28;19.95;;;8.40;;
60714;SDS011;46564;53.096;8.246;2022-10-16T20:54:43;22.45;;;7.97;;
60714;SDS011;46564;53.096;8.246;2022-10-16T20:59:44;17.45;;;5.97;;
60714;SDS011;46564;53.096;8.246;2022-10-16T21:04:46;15.88;;;6.93;;
60714;SDS011;46564;53.096;8.246;2022-10-16T21:09:49;15.02;;;5.75;;
60714;SDS011;46564;53.096;8.246;2022-10-16T21:14:50;18.25;;;7.07;;
60714;SDS011;46564;53.096;8.246;2022-10-16T21:20:12;18.30;;;6.25;;
60714;SDS011;46564;53.096;8.246;2022-10-16T21:25:14;17.58;;;6.05;;
60714;SDS011;46564;53.096;8.246;2022-10-16T21:30:15;10.38;;;3.85;;
60714;SDS011;46564;53.096;8.246;2022-10-16T21:35:17;14.52;;;2.85;;
60714;SDS011;46564;53.096;8.246;2022-10-16T21:40:18;8.45;;;2.97;;
60714;SDS011;46564;53.096;8.246;2022-10-16T21:45:21;9.20;;;2.90;;
60714;SDS011;46564;53.096;8.246;2022-10-16T21:50:22;12.13;;;2.85;;
60714;SDS011;46564;53.096;8.246;2022-10-16T21:55:24;8.32;;;3.20;;
60714;SDS011;46564;53.096;8.246;2022-10-16T22:00:25;6.57;;;3.08;;
60714;SDS011;46564;53.096;8.246;2022-10-16T22:05:27;12.75;;;2.92;;
60714;SDS011;46564;53.096;8.246;2022-10-16T22:10:30;5.20;;;2.75;;
60714;SDS011;46564;53.096;8.246;2022-10-16T22:15:32;10.35;;;3.20;;
60714;SDS011;46564;53.096;8.246;2022-10-16T22:20:33;8.55;;;3.30;;
60714;SDS011;46564;53.096;8.246;2022-10-16T22:25:36;10.43;;;3.08;;
60714;SDS011;46564;53.096;8.246;2022-10-16T22:30:38;10.10;;;2.80;;
60714;SDS011;46564;53.096;8.246;2022-10-16T22:35:40;15.07;;;3.42;;
60714;SDS011;46564;53.096;8.246;2022-10-16T22:40:43;10.52;;;4.13;;
60714;SDS011;46564;53.096;8.246;2022-10-16T22:45:45;10.13;;;4.45;;
60714;SDS011;46564;53.096;8.246;2022-10-16T22:50:47;13.30;;;4.55;;
60714;SDS011;46564;53.096;8.246;2022-10-16T22:55:49;11.25;;;4.38;;
60714;SDS011;46564;53.096;8.246;2022-10-16T23:00:50;11.55;;;3.88;;
60714;SDS011;46564;53.096;8.246;2022-10-16T23:05:53;9.85;;;3.55;;
60714;SDS011;46564;53.096;8.246;2022-10-16T23:10:55;10.45;;;3.60;;
60714;SDS011;46564;53.096;8.246;2022-10-16T23:16:02;18.50;;;4.22;;
60714;SDS011;46564;53.096;8.246;2022-10-16T23:21:09;9.15;;;3.38;;
60714;SDS011;46564;53.096;8.246;2022-10-16T23:26:17;8.13;;;3.70;;
60714;SDS011;46564;53.096;8.246;2022-10-16T23:31:20;13.80;;;3.83;;
60714;SDS011;46564;53.096;8.246;2022-10-16T23:36:22;8.60;;;3.20;;
60714;SDS011;46564;53.096;8.246;2022-10-16T23:41:24;12.57;;;3.33;;
60714;SDS011;46564;53.096;8.246;2022-10-16T23:46:26;11.32;;;3.58;;
60714;SDS011;46564;53.096;8.246;2022-10-16T23:51:28;10.93;;;3.67;;
60714;SDS011;46564;53.096;8.246;2022-10-16T23:56:30;7.85;;;3.28;;
